createdAt,value
2023-03-03T00:03:59.997Z,16.90
2023-03-03T00:09:01.387Z,16.45
2023-03-03T00:14:02.711Z,17.33
2023-03-03T00:19:04.680Z,17.70
2023-03-03T00:24:05.917Z,15.50
2023-03-03T00:29:26.066Z,17.03
2023-03-03T00:34:28.437Z,16.17
2023-03-03T00:39:37.302Z,17.13
2023-03-03T00:44:43.006Z,17.25
2023-03-03T00:49:44.308Z,16.65
2023-03-03T00:54:45.545Z,15.87
2023-03-03T00:59:46.993Z,16.00
2023-03-03T01:04:52.112Z,14.83
2023-03-03T01:09:53.391Z,15.55
2023-03-03T01:14:55.439Z,16.50
2023-03-03T01:19:56.691Z,15.53
2023-03-03T01:24:59.308Z,15.77
2023-03-03T01:30:01.663Z,16.20
2023-03-03T01:35:02.989Z,15.98
2023-03-03T01:40:06.066Z,14.82
2023-03-03T01:45:13.670Z,15.10
2023-03-03T01:50:17.995Z,14.60
2023-03-03T01:55:22.020Z,13.87
2023-03-03T02:00:23.482Z,14.60
2023-03-03T02:05:25.125Z,14.88
2023-03-03T02:10:26.717Z,14.37
2023-03-03T02:15:32.711Z,16.35
2023-03-03T02:20:46.360Z,14.93
2023-03-03T02:25:58.811Z,17.15
2023-03-03T02:31:01.320Z,15.88
2023-03-03T02:36:02.604Z,14.97
2023-03-03T02:41:10.483Z,15.38
2023-03-03T02:46:11.923Z,14.50
2023-03-03T02:51:13.178Z,15.23
2023-03-03T02:56:14.459Z,15.63
2023-03-03T03:01:15.797Z,14.93
2023-03-03T03:06:17.330Z,15.40
2023-03-03T03:11:18.574Z,16.00
2023-03-03T03:16:19.955Z,15.18
2023-03-03T03:21:21.310Z,15.55
2023-03-03T03:26:22.814Z,13.87
2023-03-03T03:31:24.057Z,15.50
2023-03-03T03:36:27.062Z,14.93
2023-03-03T03:41:28.356Z,15.27
2023-03-03T03:46:29.734Z,14.00
2023-03-03T03:51:31.527Z,14.17
2023-03-03T03:56:32.827Z,15.13
2023-03-03T04:01:34.120Z,13.93
2023-03-03T04:06:35.400Z,14.43
2023-03-03T04:11:36.925Z,14.82
2023-03-03T04:16:38.226Z,15.03
2023-03-03T04:21:39.549Z,14.68
2023-03-03T04:26:40.875Z,14.10
2023-03-03T04:31:42.134Z,14.15
2023-03-03T04:36:43.392Z,14.45
2023-03-03T04:41:44.682Z,13.93
2023-03-03T04:46:45.992Z,14.07
2023-03-03T04:51:47.271Z,14.43
2023-03-03T04:56:48.536Z,13.13
2023-03-03T05:01:51.000Z,14.48
2023-03-03T05:06:52.368Z,14.47
2023-03-03T05:11:54.095Z,13.90
2023-03-03T05:16:55.378Z,16.27
2023-03-03T05:21:57.546Z,14.82
2023-03-03T05:26:58.861Z,16.17
2023-03-03T05:32:00.403Z,17.23
2023-03-03T05:37:03.570Z,15.63
2023-03-03T05:42:04.923Z,16.70
2023-03-03T05:47:06.354Z,17.02
2023-03-03T05:52:08.970Z,16.08
2023-03-03T05:57:10.565Z,17.00
2023-03-03T06:02:12.027Z,15.90
2023-03-03T06:07:13.351Z,17.43
2023-03-03T06:12:14.600Z,16.13
2023-03-03T06:17:15.844Z,15.80
2023-03-03T06:22:17.142Z,14.97
2023-03-03T06:27:18.968Z,17.00
2023-03-03T06:32:20.354Z,16.17
2023-03-03T06:37:21.596Z,15.98
2023-03-03T06:42:24.840Z,15.13
2023-03-03T06:47:26.227Z,16.53
2023-03-03T06:52:27.698Z,17.05
2023-03-03T06:57:30.342Z,16.97
2023-03-03T07:02:31.584Z,17.25
2023-03-03T07:07:33.772Z,16.85
2023-03-03T07:12:35.473Z,16.27
2023-03-03T07:17:41.466Z,17.23
2023-03-03T07:22:42.727Z,16.70
2023-03-03T07:27:44.041Z,17.88
2023-03-03T07:32:45.949Z,16.45
2023-03-03T07:37:47.235Z,16.33
2023-03-03T07:42:49.019Z,16.55
2023-03-03T07:47:50.382Z,15.57
2023-03-03T07:52:57.004Z,16.15
2023-03-03T07:58:06.958Z,15.25
2023-03-03T08:03:19.776Z,16.27
2023-03-03T08:08:30.111Z,22.63
2023-03-03T08:13:34.141Z,15.57
2023-03-03T08:18:36.604Z,17.90
2023-03-03T08:23:37.886Z,20.23
2023-03-03T08:28:39.245Z,17.10
2023-03-03T08:33:40.626Z,16.75
2023-03-03T08:38:42.233Z,15.97
2023-03-03T08:43:45.408Z,15.40
2023-03-03T08:48:46.754Z,17.40
2023-03-03T08:53:48.055Z,16.97
2023-03-03T08:59:01.797Z,16.23
2023-03-03T09:04:04.084Z,15.30
2023-03-03T09:09:05.901Z,15.60
2023-03-03T09:14:12.083Z,15.45
2023-03-03T09:19:33.711Z,14.73
2023-03-03T09:24:36.770Z,15.52
2023-03-03T09:29:38.384Z,15.10
2023-03-03T09:34:40.546Z,13.20
2023-03-03T09:39:41.821Z,12.73
2023-03-03T09:44:45.974Z,12.23
2023-03-03T09:50:02.492Z,12.07
2023-03-03T09:55:04.013Z,12.33
2023-03-03T10:00:20.696Z,12.63
2023-03-03T10:05:31.116Z,13.55
2023-03-03T10:10:56.738Z,14.10
2023-03-03T10:16:10.182Z,13.75
2023-03-03T10:21:21.608Z,14.10
2023-03-03T10:26:42.001Z,13.60
2023-03-03T10:32:04.191Z,14.73
2023-03-03T10:37:17.636Z,13.30
2023-03-03T10:42:20.977Z,14.50
2023-03-03T10:47:22.291Z,13.83
2023-03-03T10:52:26.631Z,13.05
2023-03-03T10:57:37.140Z,14.52
2023-03-03T11:02:41.525Z,13.17
2023-03-03T11:07:46.744Z,14.45
2023-03-03T11:12:57.480Z,13.77
2023-03-03T11:18:19.189Z,15.70
2023-03-03T11:23:23.505Z,14.85
2023-03-03T11:28:30.713Z,15.17
2023-03-03T11:33:31.933Z,16.13
2023-03-03T11:38:38.826Z,16.40
2023-03-03T11:43:47.005Z,16.25
2023-03-03T11:48:54.012Z,15.30
2023-03-03T11:53:59.401Z,15.10
2023-03-03T11:59:18.169Z,17.75
2023-03-03T12:04:27.291Z,16.07
2023-03-03T12:09:43.600Z,16.40
2023-03-03T12:15:02.020Z,15.15
2023-03-03T12:20:12.483Z,15.53
2023-03-03T12:25:13.727Z,15.85
2023-03-03T12:30:21.653Z,14.80
2023-03-03T12:35:29.032Z,22.48
2023-03-03T12:40:33.334Z,15.02
2023-03-03T12:45:46.710Z,18.07
2023-03-03T12:51:10.105Z,15.68
2023-03-03T12:56:24.583Z,13.93
2023-03-03T13:01:40.895Z,14.40
2023-03-03T13:07:00.838Z,14.43
2023-03-03T13:12:20.949Z,14.80
2023-03-03T13:17:31.469Z,14.40
2023-03-03T13:22:46.630Z,15.60
2023-03-03T13:27:50.432Z,14.38
2023-03-03T13:32:57.803Z,14.50
2023-03-03T13:38:02.150Z,17.47
2023-03-03T13:43:05.013Z,13.82
2023-03-03T13:48:24.639Z,14.53
2023-03-03T13:53:38.085Z,13.85
2023-03-03T13:58:49.005Z,15.57
2023-03-03T14:04:01.878Z,15.10
2023-03-03T14:09:22.535Z,14.23
2023-03-03T14:14:29.692Z,15.73
2023-03-03T14:19:40.987Z,14.73
2023-03-03T14:25:01.857Z,15.40
2023-03-03T14:30:21.724Z,15.53
2023-03-03T14:35:23.136Z,16.52
2023-03-03T14:40:32.395Z,15.90
2023-03-03T14:45:33.694Z,15.60
2023-03-03T14:50:39.790Z,14.98
2023-03-03T14:55:42.460Z,15.10
2023-03-03T15:00:43.843Z,15.75
2023-03-03T15:05:55.132Z,15.67
2023-03-03T15:11:11.333Z,15.13
2023-03-03T15:16:35.625Z,15.75
2023-03-03T15:21:40.460Z,14.83
2023-03-03T15:26:45.592Z,16.95
2023-03-03T15:31:53.782Z,17.03
2023-03-03T15:37:13.629Z,14.95
2023-03-03T15:42:35.508Z,15.10
2023-03-03T15:47:36.756Z,15.30
2023-03-03T15:52:56.444Z,15.15
2023-03-03T15:58:16.738Z,14.20
2023-03-03T16:03:21.520Z,14.93
2023-03-03T16:08:26.044Z,15.80
2023-03-03T16:13:45.936Z,16.13
2023-03-03T16:18:53.500Z,14.65
2023-03-03T16:23:54.734Z,15.77
2023-03-03T16:29:03.630Z,15.85
2023-03-03T16:34:23.933Z,15.80
2023-03-03T16:39:45.554Z,17.43
2023-03-03T16:44:51.802Z,18.42
2023-03-03T16:49:59.806Z,20.83
2023-03-03T16:55:27.459Z,18.15
2023-03-03T17:00:44.811Z,17.02
2023-03-03T17:05:54.902Z,18.00
2023-03-03T17:11:01.994Z,19.92
2023-03-03T17:16:22.244Z,15.27
2023-03-03T17:21:29.609Z,21.88
2023-03-03T17:26:37.058Z,20.17
2023-03-03T17:31:53.513Z,18.13
2023-03-03T17:37:02.713Z,17.83
2023-03-03T17:42:10.138Z,26.77
2023-03-03T17:47:13.251Z,18.90
2023-03-03T17:52:33.332Z,16.80
2023-03-03T17:57:49.173Z,16.07
2023-03-03T18:03:09.320Z,18.63
2023-03-03T18:08:19.893Z,19.33
2023-03-03T18:13:40.146Z,19.77
2023-03-03T18:18:49.534Z,19.00
2023-03-03T18:23:51.221Z,21.10
2023-03-03T18:29:05.257Z,20.17
2023-03-03T18:34:25.072Z,19.53
2023-03-03T18:39:45.870Z,19.27
2023-03-03T18:44:49.989Z,19.00
2023-03-03T18:49:53.364Z,20.93
2023-03-03T18:55:00.838Z,19.88
2023-03-03T19:00:14.085Z,20.13
2023-03-03T19:05:15.393Z,21.65
2023-03-03T19:10:22.617Z,18.33
2023-03-03T19:15:30.020Z,18.83
2023-03-03T19:20:44.007Z,19.70
2023-03-03T19:25:45.309Z,20.07
2023-03-03T19:30:49.341Z,20.70
2023-03-03T19:36:10.631Z,22.02
2023-03-03T19:41:30.798Z,20.07
2023-03-03T19:46:35.233Z,20.35
2023-03-03T19:51:55.236Z,20.70
2023-03-03T19:56:58.303Z,18.50
2023-03-03T20:02:18.280Z,20.27
2023-03-03T20:07:23.991Z,21.73
2023-03-03T20:12:28.073Z,21.15
2023-03-03T20:17:43.134Z,21.07
2023-03-03T20:22:56.500Z,20.85
2023-03-03T20:28:03.115Z,20.23
2023-03-03T20:33:19.673Z,19.60
2023-03-03T20:38:29.617Z,20.58
2023-03-03T20:43:30.935Z,20.90
2023-03-03T20:48:38.419Z,22.35
2023-03-03T20:53:45.831Z,18.90
2023-03-03T20:59:04.579Z,17.20
2023-03-03T21:04:18.204Z,20.08
2023-03-03T21:09:35.619Z,19.87
2023-03-03T21:14:37.036Z,19.92
2023-03-03T21:19:38.287Z,20.83
2023-03-03T21:24:53.598Z,22.63
2023-03-03T21:30:04.329Z,24.75
2023-03-03T21:35:07.216Z,20.13
2023-03-03T21:40:16.163Z,19.85
2023-03-03T21:45:20.268Z,21.92
2023-03-03T21:50:21.582Z,22.10
2023-03-03T21:55:24.028Z,21.88
2023-03-03T22:00:26.873Z,21.13
2023-03-03T22:05:28.210Z,20.05
2023-03-03T22:10:29.485Z,19.80
2023-03-03T22:15:33.260Z,17.87
2023-03-03T22:20:34.615Z,17.35
2023-03-03T22:25:35.982Z,18.67
2023-03-03T22:30:37.397Z,18.80
2023-03-03T22:35:38.810Z,18.50
2023-03-03T22:40:40.113Z,18.80
2023-03-03T22:45:41.463Z,19.38
2023-03-03T22:50:44.676Z,18.10
2023-03-03T22:55:46.039Z,18.20
2023-03-03T23:00:48.151Z,17.73
2023-03-03T23:05:51.653Z,18.37
2023-03-03T23:10:53.116Z,18.30
2023-03-03T23:15:58.371Z,17.80
2023-03-03T23:20:59.761Z,17.90
2023-03-03T23:26:01.157Z,17.02
2023-03-03T23:31:02.479Z,17.87
2023-03-03T23:36:03.910Z,19.42
2023-03-03T23:41:05.181Z,17.80
2023-03-03T23:46:06.478Z,18.95
2023-03-03T23:51:07.781Z,17.17
2023-03-03T23:56:09.025Z,16.90
